Time;durP1;ratioP1;P1;durP2;ratioP2;P2;SDS_P1;SDS_P2;PMS_P1;PMS_P2;Temp;Humidity;BMP_temperature;BMP_pressure;BME280_temperature;BME280_humidity;BME280_pressure;Samples;Min_cycle;Max_cycle;Signal;HPM_P1;HPM_P2
2023/09/05 09:24:34;;;;;;;0.60;0.60;;;43.70;28.90;;;;;;5014340;28;20428;-71
2023/09/05 09:27:05;;;;;;;0.70;0.60;;;43.40;27.70;;;;;;5014750;28;20464;-73
2023/09/05 09:29:32;;;;;;;0.80;0.70;;;43.20;27.40;;;;;;5014613;28;20401;-72
2023/09/05 09:32:05;;;;;;;1.10;1.00;;;43.40;29.80;;;;;;5014986;28;20413;-73
2023/09/05 09:34:32;;;;;;;0.50;0.50;;;43.50;26.70;;;;;;5014279;28;20516;-73
2023/09/05 09:36:58;;;;;;;0.70;0.60;;;42.60;27.70;;;;;;5014528;28;20413;-74
2023/09/05 09:39:25;;;;;;;1.10;0.70;;;42.00;27.80;;;;;;5014524;28;20410;-73
2023/09/05 09:41:51;;;;;;;0.70;0.60;;;40.90;29.30;;;;;;5014523;28;20538;-73
2023/09/05 09:44:34;;;;;;;0.70;0.60;;;39.90;29.00;;;;;;5014108;28;20454;-72
2023/09/05 09:47:02;;;;;;;1.10;0.80;;;39.70;30.80;;;;;;5014400;28;20202;-71
2023/09/05 09:49:29;;;;;;;0.80;0.70;;;39.70;30.40;;;;;;5014447;28;20775;-71
2023/09/05 09:52:04;;;;;;;0.60;0.60;;;39.90;29.90;;;;;;5014258;28;20399;-72
2023/09/05 09:54:39;;;;;;;0.63;0.60;;;40.10;28.30;;;;;;5013925;28;20434;-72
2023/09/05 09:57:08;;;;;;;0.60;0.50;;;40.30;30.00;;;;;;5014154;28;20417;-70
2023/09/05 09:59:37;;;;;;;0.90;0.67;;;40.40;26.70;;;;;;5014261;28;20936;-71
2023/09/05 10:02:08;;;;;;;0.70;0.63;;;39.40;27.90;;;;;;5014210;28;20410;-73
2023/09/05 10:04:35;;;;;;;0.43;0.43;;;39.30;29.10;;;;;;5013875;28;20454;-71
2023/09/05 10:07:06;;;;;;;0.60;0.60;;;39.50;28.10;;;;;;5014061;28;20434;-71
2023/09/05 10:09:39;;;;;;;0.70;0.57;;;39.10;27.00;;;;;;5014275;28;20915;-70
2023/09/05 10:12:05;;;;;;;0.53;0.53;;;37.30;28.10;;;;;;5014144;28;20417;-72
2023/09/05 10:14:31;;;;;;;0.40;0.40;;;35.20;28.00;;;;;;5013697;28;20814;-71
2023/09/05 10:17:02;;;;;;;0.50;0.50;;;34.20;29.90;;;;;;5012642;28;20436;-72
2023/09/05 10:19:29;;;;;;;0.50;0.50;;;34.40;30.60;;;;;;5013889;28;20171;-70
2023/09/05 10:21:58;;;;;;;0.50;0.40;;;35.20;30.00;;;;;;5013588;28;20453;-72
2023/09/05 10:24:30;;;;;;;0.40;0.40;;;35.50;26.80;;;;;;5013273;28;20472;-72
2023/09/05 10:26:56;;;;;;;0.70;0.70;;;35.60;29.40;;;;;;5013968;28;20410;-71
2023/09/05 10:29:35;;;;;;;0.40;0.40;;;35.80;29.70;;;;;;5013857;28;20407;-72
2023/09/05 10:32:04;;;;;;;0.60;0.50;;;35.10;30.80;;;;;;5013663;28;20163;-70
2023/09/05 10:34:47;;;;;;;0.67;0.50;;;35.00;30.70;;;;;;5013516;28;20462;-69
2023/09/05 10:37:23;;;;;;;1.03;0.60;;;34.70;30.10;;;;;;5013754;28;20394;-71
2023/09/05 10:39:50;;;;;;;0.40;0.40;;;33.70;27.60;;;;;;5013886;28;20398;-72
2023/09/05 10:42:16;;;;;;;0.83;0.57;;;33.70;28.90;;;;;;5013571;28;20402;-70
2023/09/05 10:44:44;;;;;;;0.70;0.60;;;34.10;29.50;;;;;;5013354;28;20537;-69
2023/09/05 10:47:29;;;;;;;0.50;0.40;;;34.10;27.90;;;;;;5013324;28;20465;-72
2023/09/05 10:50:04;;;;;;;0.50;0.50;;;34.20;29.50;;;;;;5013493;28;20414;-71
2023/09/05 10:52:30;;;;;;;0.63;0.50;;;34.30;30.10;;;;;;5013790;28;20485;-70
2023/09/05 10:55:25;;;;;;;0.60;0.50;;;34.10;31.40;;;;;;5013543;28;20450;-71
2023/09/05 10:57:51;;;;;;;0.53;0.50;;;33.70;30.30;;;;;;5013260;28;20179;-71
2023/09/05 11:00:23;;;;;;;0.70;0.60;;;33.60;29.60;;;;;;5012802;28;20961;-69
2023/09/05 11:02:50;;;;;;;0.97;0.40;;;32.10;28.20;;;;;;5013850;28;20419;-70
2023/09/05 11:05:20;;;;;;;0.50;0.50;;;30.50;29.30;;;;;;5013094;28;20450;-71
2023/09/05 11:07:48;;;;;;;0.70;0.40;;;29.80;30.50;;;;;;5014014;28;20394;-70
2023/09/05 11:10:33;;;;;;;0.60;0.60;;;29.70;31.00;;;;;;5013328;28;20413;-70
2023/09/05 11:13:10;;;;;;;0.43;0.43;;;29.90;33.70;;;;;;5013848;28;20414;-70
2023/09/05 11:15:37;;;;;;;0.60;0.60;;;29.90;30.90;;;;;;5013279;28;20406;-70
2023/09/05 11:18:05;;;;;;;0.73;0.73;;;29.70;31.70;;;;;;5013572;28;20413;-70
2023/09/05 11:20:41;;;;;;;0.50;0.50;;;29.50;33.30;;;;;;5013788;28;20434;-70
2023/09/05 11:23:11;;;;;;;0.40;0.40;;;29.50;33.20;;;;;;5013345;28;20775;-70
2023/09/05 11:25:46;;;;;;;0.70;0.50;;;29.80;32.30;;;;;;5013078;28;20473;-70
2023/09/05 11:28:12;;;;;;;0.77;0.50;;;29.70;33.40;;;;;;5013605;28;20884;-70
2023/09/05 11:30:40;;;;;;;0.97;0.50;;;29.60;33.40;;;;;;5012185;28;20442;-70
2023/09/05 11:33:14;;;;;;;0.67;0.50;;;29.50;33.00;;;;;;5013256;28;20444;-72
2023/09/05 11:35:41;;;;;;;0.60;0.40;;;29.50;32.90;;;;;;5016736;28;20413;-72
2023/09/05 11:38:07;;;;;;;1.20;1.13;;;29.40;31.60;;;;;;5016721;28;20402;-72
2023/09/05 11:40:33;;;;;;;0.70;0.50;;;29.40;33.90;;;;;;5016674;28;20452;-70
2023/09/05 11:43:07;;;;;;;0.50;0.50;;;29.20;33.10;;;;;;5016141;28;20494;-70
2023/09/05 11:45:34;;;;;;;4.93;0.63;;;29.30;35.70;;;;;;5016582;28;20647;-70
2023/09/05 11:48:04;;;;;;;0.70;0.70;;;29.40;35.60;;;;;;5016261;28;20405;-70
2023/09/05 11:50:33;;;;;;;0.60;0.60;;;29.40;35.90;;;;;;5016618;28;20418;-70
2023/09/05 11:53:01;;;;;;;0.97;0.80;;;29.40;40.40;;;;;;5016343;28;20488;-70
2023/09/05 11:55:29;;;;;;;0.67;0.40;;;29.40;38.10;;;;;;5016502;28;20765;-70
2023/09/05 11:57:56;;;;;;;1.27;0.70;;;29.50;36.40;;;;;;5016624;28;20411;-69
2023/09/05 12:00:24;;;;;;;0.40;0.40;;;29.50;34.50;;;;;;5016542;28;20437;-70
2023/09/05 12:02:54;;;;;;;0.50;0.50;;;29.60;35.80;;;;;;5016430;28;20769;-70
2023/09/05 12:05:20;;;;;;;0.60;0.50;;;29.80;33.60;;;;;;5016006;28;20564;-72
2023/09/05 12:07:56;;;;;;;0.93;0.77;;;29.90;34.00;;;;;;5016209;28;20445;-70
2023/09/05 12:10:25;;;;;;;0.60;0.60;;;29.70;35.40;;;;;;5016286;28;20469;-70
2023/09/05 12:12:55;;;;;;;0.60;0.50;;;29.70;35.70;;;;;;5016284;28;20544;-70
2023/09/05 12:15:29;;;;;;;0.50;0.40;;;29.70;37.00;;;;;;5015992;28;20513;-69
2023/09/05 12:17:55;;;;;;;0.50;0.50;;;29.60;34.00;;;;;;5015933;28;20414;-70
2023/09/05 12:20:21;;;;;;;0.40;0.40;;;29.60;37.30;;;;;;5014343;28;20411;-70
2023/09/05 12:22:47;;;;;;;0.50;0.50;;;29.70;36.40;;;;;;5015513;28;20769;-70
2023/09/05 12:25:19;;;;;;;1.60;0.87;;;29.70;37.70;;;;;;5015730;28;20211;-70
2023/09/05 12:27:46;;;;;;;0.83;0.73;;;29.60;36.00;;;;;;5014766;28;20822;-70
2023/09/05 12:30:29;;;;;;;0.50;0.50;;;29.30;34.90;;;;;;5016273;28;20411;-69
2023/09/05 12:33:00;;;;;;;0.70;0.70;;;29.20;37.70;;;;;;5015948;28;20937;-70
2023/09/05 12:35:28;;;;;;;0.60;0.50;;;29.00;36.70;;;;;;5016101;28;20427;-68
2023/09/05 12:37:55;;;;;;;0.63;0.60;;;29.10;39.90;;;;;;5015766;28;20407;-70
2023/09/05 12:40:22;;;;;;;0.50;0.50;;;28.80;40.60;;;;;;5015611;28;20410;-69
2023/09/05 12:42:49;;;;;;;1.50;0.60;;;28.60;39.70;;;;;;5014958;28;20461;-70
2023/09/05 12:45:16;;;;;;;0.60;0.60;;;28.80;40.20;;;;;;5015054;28;20536;-70
2023/09/05 12:47:43;;;;;;;0.50;0.50;;;28.90;38.40;;;;;;5014485;28;20894;-70
2023/09/05 12:50:12;;;;;;;0.80;0.50;;;29.10;38.10;;;;;;5014830;28;20415;-70
2023/09/05 12:52:44;;;;;;;0.60;0.40;;;29.20;37.50;;;;;;5015537;28;20407;-71
2023/09/05 12:55:12;;;;;;;0.80;0.80;;;29.20;36.90;;;;;;5014866;28;20438;-70
2023/09/05 12:57:39;;;;;;;0.80;0.60;;;29.20;36.20;;;;;;5015331;28;20402;-69
2023/09/05 13:00:06;;;;;;;0.67;0.57;;;29.10;35.60;;;;;;5015179;28;20925;-70
2023/09/05 13:02:32;;;;;;;0.50;0.50;;;29.10;35.30;;;;;;5015182;28;20948;-69
2023/09/05 13:04:57;;;;;;;0.90;0.80;;;28.90;36.00;;;;;;5014862;28;20454;-69
2023/09/05 13:07:23;;;;;;;0.80;0.70;;;28.70;37.40;;;;;;5015295;28;20527;-69
2023/09/05 13:09:49;;;;;;;0.60;0.60;;;28.50;42.50;;;;;;5015050;28;20172;-70
2023/09/05 13:12:15;;;;;;;0.70;0.60;;;28.10;41.00;;;;;;5015125;28;20176;-70
2023/09/05 13:14:42;;;;;;;0.70;0.60;;;27.90;41.00;;;;;;5014276;28;20226;-72
2023/09/05 13:17:09;;;;;;;0.60;0.50;;;28.00;38.20;;;;;;5013603;28;20832;-70
2023/09/05 13:19:34;;;;;;;0.50;0.50;;;28.10;36.80;;;;;;5014753;28;20751;-69
2023/09/05 13:22:00;;;;;;;0.87;0.77;;;27.90;47.00;;;;;;5014769;28;20410;-71
2023/09/05 13:24:25;;;;;;;0.50;0.50;;;27.40;47.10;;;;;;5014398;28;20682;-70
2023/09/05 13:26:53;;;;;;;0.30;0.30;;;27.40;44.00;;;;;;5014981;28;20202;-72
2023/09/05 13:29:19;;;;;;;0.97;0.70;;;27.50;42.70;;;;;;5014979;28;20226;-71
2023/09/05 13:31:45;;;;;;;0.77;0.73;;;27.70;39.80;;;;;;5014806;28;20407;-70
2023/09/05 13:34:11;;;;;;;0.63;0.63;;;27.90;42.70;;;;;;5014473;28;20199;-72
2023/09/05 13:36:37;;;;;;;1.47;0.80;;;28.00;40.60;;;;;;5014515;28;20712;-70
2023/09/05 13:39:03;;;;;;;0.60;0.50;;;27.90;45.80;;;;;;5014489;28;20168;-72
2023/09/05 13:41:29;;;;;;;0.73;0.50;;;27.80;45.80;;;;;;5014743;28;20396;-71
2023/09/05 13:43:55;;;;;;;0.60;0.60;;;27.70;45.70;;;;;;5014113;28;20203;-70
2023/09/05 13:46:20;;;;;;;0.80;0.63;;;27.70;46.70;;;;;;5014410;28;20179;-72
2023/09/05 13:48:48;;;;;;;0.47;0.47;;;27.70;39.60;;;;;;5014558;28;20902;-72
2023/09/05 13:51:19;;;;;;;2.53;0.70;;;27.80;39.80;;;;;;5014335;28;20187;-71
2023/09/05 13:53:45;;;;;;;0.50;0.50;;;27.70;43.30;;;;;;5029119;28;20787;-70
2023/09/05 13:56:10;;;;;;;0.77;0.77;;;27.70;42.60;;;;;;5013857;28;20414;-72
2023/09/05 13:58:36;;;;;;;1.70;0.70;;;27.70;37.90;;;;;;5014323;28;20195;-71
2023/09/05 14:01:02;;;;;;;0.50;0.50;;;27.70;40.70;;;;;;5013923;28;20171;-71
2023/09/05 14:03:29;;;;;;;0.63;0.63;;;27.80;39.80;;;;;;5013928;28;20214;-69
2023/09/05 14:05:55;;;;;;;0.57;0.57;;;27.70;47.00;;;;;;5014260;28;20164;-71
2023/09/05 14:08:21;;;;;;;0.60;0.60;;;27.10;46.20;;;;;;5014201;28;20908;-71
2023/09/05 14:10:50;;;;;;;0.60;0.60;;;26.70;43.70;;;;;;5014110;28;20407;-72
2023/09/05 14:13:15;;;;;;;0.80;0.70;;;26.70;44.20;;;;;;5013851;28;20491;-70
2023/09/05 14:15:41;;;;;;;0.73;0.60;;;26.70;44.30;;;;;;5014024;28;20461;-71
2023/09/05 14:18:07;;;;;;;0.50;0.50;;;26.70;41.20;;;;;;5014070;28;20221;-71
2023/09/05 14:20:32;;;;;;;0.40;0.40;;;26.80;45.80;;;;;;5013545;28;20168;-69
2023/09/05 14:22:58;;;;;;;0.60;0.40;;;26.50;48.10;;;;;;5013325;28;20179;-71
2023/09/05 14:25:23;;;;;;;0.60;0.53;;;26.00;49.00;;;;;;5013569;28;20572;-71
2023/09/05 14:27:51;;;;;;;0.70;0.70;;;25.80;43.90;;;;;;5013937;28;20251;-70
2023/09/05 14:30:17;;;;;;;1.60;0.70;;;25.70;45.10;;;;;;5013858;28;20192;-70
2023/09/05 14:32:43;;;;;;;0.70;0.70;;;25.70;47.20;;;;;;5013936;28;20874;-71
2023/09/05 14:35:09;;;;;;;1.07;0.70;;;25.40;43.80;;;;;;5013400;28;20413;-71
2023/09/05 14:37:34;;;;;;;0.57;0.50;;;25.40;46.60;;;;;;5013843;28;20787;-72
2023/09/05 14:40:00;;;;;;;0.50;0.50;;;25.50;42.70;;;;;;5013654;28;20388;-69
2023/09/05 14:42:31;;;;;;;0.60;0.60;;;25.70;41.50;;;;;;5013522;28;20199;-71
2023/09/05 14:44:57;;;;;;;0.60;0.60;;;25.90;45.30;;;;;;5013004;28;20198;-70
2023/09/05 14:47:23;;;;;;;0.80;0.80;;;25.90;43.20;;;;;;5013554;28;20406;-69
2023/09/05 14:49:49;;;;;;;0.50;0.50;;;25.90;45.00;;;;;;5013590;28;20737;-70
2023/09/05 14:52:18;;;;;;;0.60;0.60;;;25.70;47.20;;;;;;5013396;28;20402;-71
2023/09/05 14:54:44;;;;;;;0.67;0.67;;;25.50;40.50;;;;;;5013386;28;20247;-69
2023/09/05 14:57:09;;;;;;;0.30;0.30;;;25.60;43.70;;;;;;5013942;28;20494;-71
2023/09/05 14:59:35;;;;;;;0.50;0.50;;;25.50;47.70;;;;;;5014001;28;20189;-69
2023/09/05 15:02:01;;;;;;;0.47;0.47;;;25.20;48.70;;;;;;5013754;28;20202;-71
2023/09/05 15:04:26;;;;;;;3.43;1.00;;;25.00;43.20;;;;;;5012511;28;20382;-71
2023/09/05 15:06:52;;;;;;;0.70;0.63;;;25.10;40.90;;;;;;5013428;28;20167;-70
2023/09/05 15:09:17;;;;;;;0.50;0.50;;;25.20;44.60;;;;;;5015870;28;20651;-70
2023/09/05 15:11:43;;;;;;;0.63;0.60;;;25.00;48.80;;;;;;5017291;28;20172;-69
2023/09/05 15:14:09;;;;;;;1.20;0.80;;;24.80;49.30;;;;;;5016830;28;20725;-70
2023/09/05 15:16:35;;;;;;;0.53;0.53;;;24.70;49.50;;;;;;5017260;28;20218;-71
2023/09/05 15:19:00;;;;;;;0.40;0.40;;;24.60;44.60;;;;;;5017271;28;20170;-69
2023/09/05 15:21:26;;;;;;;0.87;0.87;;;24.80;43.30;;;;;;5017424;28;20837;-71
2023/09/05 15:23:52;;;;;;;0.57;0.50;;;25.00;45.40;;;;;;5016930;28;20190;-69
2023/09/05 15:26:18;;;;;;;0.50;0.50;;;25.10;43.80;;;;;;5015676;28;20412;-70
2023/09/05 15:28:44;;;;;;;0.67;0.67;;;25.20;47.70;;;;;;5016606;28;20170;-69
2023/09/05 15:31:09;;;;;;;1.50;0.80;;;25.00;47.90;;;;;;5014680;28;20397;-71
2023/09/05 15:33:35;;;;;;;1.10;1.10;;;24.90;49.90;;;;;;5014495;28;20235;-72
2023/09/05 15:36:01;;;;;;;0.60;0.50;;;24.60;49.20;;;;;;5014928;28;20168;-71
2023/09/05 15:38:27;;;;;;;1.60;1.33;;;24.30;51.70;;;;;;5014742;28;20310;-69
2023/09/05 15:40:53;;;;;;;0.50;0.50;;;24.00;53.00;;;;;;5014603;28;20783;-71
2023/09/05 15:43:19;;;;;;;0.50;0.50;;;23.80;51.70;;;;;;5015146;28;20387;-71
2023/09/05 15:45:50;;;;;;;0.70;0.60;;;23.90;51.30;;;;;;5015911;28;20191;-71
2023/09/05 15:48:15;;;;;;;0.60;0.60;;;24.10;50.30;;;;;;5016586;28;20402;-72
2023/09/05 15:50:42;;;;;;;0.90;0.80;;;24.10;53.60;;;;;;5016640;28;20409;-71
2023/09/05 15:53:11;;;;;;;3.13;0.87;;;24.00;52.90;;;;;;5015867;28;20918;-69
2023/09/05 15:55:37;;;;;;;5.07;1.27;;;23.90;54.40;;;;;;5015345;28;20453;-71
2023/09/05 15:58:03;;;;;;;1.07;0.93;;;23.90;55.60;;;;;;5015296;28;20460;-70
2023/09/05 16:00:29;;;;;;;1.33;1.03;;;23.80;55.40;;;;;;5031393;28;20243;-70
2023/09/05 16:02:54;;;;;;;0.70;0.70;;;23.90;55.60;;;;;;5016027;28;20937;-71
2023/09/05 16:05:20;;;;;;;2.00;1.13;;;23.90;56.70;;;;;;5016100;28;20195;-71
2023/09/05 16:07:45;;;;;;;0.70;0.70;;;23.80;57.70;;;;;;5016573;28;20175;-71
2023/09/05 16:10:12;;;;;;;0.90;0.80;;;23.90;59.00;;;;;;5016245;28;20198;-70
2023/09/05 16:12:38;;;;;;;0.90;0.90;;;23.80;59.30;;;;;;5016815;28;20168;-71
2023/09/05 16:15:05;;;;;;;4.00;1.37;;;23.70;62.50;;;;;;5015869;28;20453;-70
2023/09/05 16:17:32;;;;;;;1.00;1.00;;;23.70;61.80;;;;;;5015957;28;20225;-70
2023/09/05 16:19:58;;;;;;;1.07;0.90;;;23.60;61.60;;;;;;5015638;28;20869;-70
2023/09/05 16:22:23;;;;;;;1.77;1.10;;;23.60;61.20;;;;;;5015273;28;20417;-70
2023/09/05 16:24:49;;;;;;;0.73;0.73;;;23.70;61.30;;;;;;5014703;28;20285;-69
2023/09/05 16:27:16;;;;;;;1.33;0.80;;;23.70;62.10;;;;;;5014942;28;20175;-71
2023/09/05 16:29:41;;;;;;;1.83;1.20;;;23.60;60.90;;;;;;5014347;28;20417;-70
2023/09/05 16:32:07;;;;;;;1.30;1.20;;;23.50;62.10;;;;;;5015006;28;20750;-69
2023/09/05 16:34:33;;;;;;;1.10;0.87;;;23.50;61.70;;;;;;5015743;28;20223;-69
2023/09/05 16:36:58;;;;;;;1.23;0.83;;;23.50;59.40;;;;;;5015160;28;20186;-72
2023/09/05 16:39:24;;;;;;;1.07;0.97;;;23.60;59.20;;;;;;5015403;28;20167;-71
2023/09/05 16:41:50;;;;;;;1.60;0.70;;;23.80;59.20;;;;;;5015657;28;20194;-70
2023/09/05 16:44:16;;;;;;;1.00;0.60;;;23.80;61.10;;;;;;5015346;28;20956;-69
2023/09/05 16:46:41;;;;;;;0.67;0.67;;;23.70;61.80;;;;;;5015572;28;20233;-71
2023/09/05 16:49:07;;;;;;;0.60;0.60;;;23.70;61.10;;;;;;5015399;28;20620;-71
2023/09/05 16:51:35;;;;;;;1.53;1.37;;;23.70;62.00;;;;;;5014254;28;20198;-71
2023/09/05 16:54:01;;;;;;;2.20;0.90;;;23.70;62.10;;;;;;5015053;28;20202;-70
2023/09/05 16:56:26;;;;;;;0.90;0.90;;;23.50;63.80;;;;;;5015522;28;20486;-71
2023/09/05 16:58:52;;;;;;;0.83;0.83;;;23.40;65.20;;;;;;5015222;28;20646;-70
2023/09/05 17:01:18;;;;;;;1.13;1.00;;;23.20;66.70;;;;;;5015249;28;20307;-71
2023/09/05 17:03:44;;;;;;;0.80;0.80;;;23.10;65.80;;;;;;5014990;28;20189;-70
2023/09/05 17:06:10;;;;;;;0.77;0.73;;;23.00;66.90;;;;;;5015134;28;20425;-70
2023/09/05 17:08:35;;;;;;;1.10;0.93;;;23.00;67.50;;;;;;5015131;28;20639;-69
2023/09/05 17:11:03;;;;;;;0.70;0.70;;;22.90;66.80;;;;;;5015239;28;20532;-70
2023/09/05 17:13:28;;;;;;;0.93;0.80;;;22.90;67.00;;;;;;5014641;28;20195;-70
2023/09/05 17:15:55;;;;;;;1.23;0.70;;;22.80;68.00;;;;;;5015056;28;20493;-70
2023/09/05 17:18:20;;;;;;;1.33;1.00;;;22.80;67.80;;;;;;5014952;28;20178;-71
2023/09/05 17:20:50;;;;;;;0.80;0.80;;;22.70;68.60;;;;;;5014919;28;20414;-70
2023/09/05 17:23:17;;;;;;;1.40;1.30;;;22.60;70.80;;;;;;5014607;28;20258;-71
2023/09/05 17:25:42;;;;;;;4.00;1.37;;;22.50;72.30;;;;;;5014677;28;20437;-72
2023/09/05 17:28:08;;;;;;;4.00;1.20;;;22.40;72.30;;;;;;5014930;28;20904;-70
2023/09/05 17:30:35;;;;;;;1.30;1.20;;;22.30;74.30;;;;;;5014268;28;20178;-70
2023/09/05 17:33:01;;;;;;;1.23;0.60;;;22.10;76.30;;;;;;5014320;28;20176;-70
2023/09/05 17:35:26;;;;;;;1.00;1.00;;;22.00;77.90;;;;;;5014499;28;20451;-69
2023/09/05 17:37:52;;;;;;;0.60;0.60;;;21.80;80.20;;;;;;5014704;28;20176;-71
2023/09/05 17:40:18;;;;;;;4.20;1.17;;;21.60;84.20;;;;;;5014530;28;20255;-71
2023/09/05 17:42:43;;;;;;;1.40;1.30;;;21.50;87.40;;;;;;5014455;28;20176;-70
2023/09/05 17:45:10;;;;;;;0.87;0.87;;;21.40;90.00;;;;;;5014236;28;20258;-69
2023/09/05 17:47:36;;;;;;;0.60;0.57;;;21.30;91.20;;;;;;5014243;28;20525;-72
2023/09/05 17:50:03;;;;;;;1.40;1.30;;;21.10;91.90;;;;;;5013618;28;20424;-69
2023/09/05 17:52:29;;;;;;;0.70;0.70;;;21.10;92.80;;;;;;5014741;28;20184;-68
2023/09/05 17:54:54;;;;;;;0.97;0.90;;;21.00;93.10;;;;;;5013548;28;20462;-67
2023/09/05 17:57:20;;;;;;;1.70;0.80;;;21.00;92.50;;;;;;5014389;28;21022;-67
2023/09/05 17:59:46;;;;;;;3.37;1.47;;;20.90;92.90;;;;;;5014781;28;20573;-67
2023/09/05 18:02:12;;;;;;;0.80;0.63;;;20.90;93.30;;;;;;5014636;28;20642;-66
2023/09/05 18:04:38;;;;;;;1.27;1.00;;;21.00;93.50;;;;;;5014662;28;20210;-67
2023/09/05 18:07:04;;;;;;;0.60;0.60;;;21.00;93.50;;;;;;5014759;28;20486;-73
2023/09/05 18:09:29;;;;;;;4.40;1.10;;;21.10;93.60;;;;;;5012776;28;20188;-71
2023/09/05 18:11:56;;;;;;;1.23;0.97;;;21.10;93.70;;;;;;5014239;28;20176;-72
2023/09/05 18:14:21;;;;;;;1.03;1.03;;;21.00;93.90;;;;;;5013952;28;20204;-70
2023/09/05 18:16:47;;;;;;;0.97;0.93;;;20.80;94.40;;;;;;5014043;28;20555;-71
2023/09/05 18:19:14;;;;;;;0.93;0.90;;;20.50;94.90;;;;;;5014420;28;20565;-71
2023/09/05 18:21:41;;;;;;;6.63;0.90;;;20.40;95.40;;;;;;5014416;28;20170;-72
2023/09/05 18:24:07;;;;;;;1.33;0.97;;;20.30;95.70;;;;;;5013932;28;20841;-72
2023/09/05 18:26:33;;;;;;;2.50;2.30;;;20.20;95.80;;;;;;5014262;28;20513;-72
2023/09/05 18:28:59;;;;;;;1.43;1.00;;;20.00;96.10;;;;;;5014140;28;20448;-70
2023/09/05 18:31:26;;;;;;;1.10;1.03;;;19.90;96.50;;;;;;5014128;28;20408;-72
2023/09/05 18:33:53;;;;;;;2.63;0.83;;;19.70;96.60;;;;;;5013438;28;20546;-72
2023/09/05 18:36:19;;;;;;;0.77;0.77;;;19.60;97.00;;;;;;5012643;28;20429;-72
2023/09/05 18:38:45;;;;;;;1.17;0.73;;;19.40;97.20;;;;;;5013882;28;20440;-71
2023/09/05 18:41:15;;;;;;;3.33;1.87;;;19.30;97.30;;;;;;5012552;28;20454;-72
2023/09/05 18:43:41;;;;;;;0.60;0.60;;;19.10;98.00;;;;;;5013684;28;20191;-71
2023/09/05 18:46:12;;;;;;;1.83;1.10;;;19.00;98.20;;;;;;5013980;28;20409;-72
2023/09/05 18:48:38;;;;;;;1.23;0.80;;;19.00;98.30;;;;;;5014147;28;20482;-72
2023/09/05 18:51:09;;;;;;;1.33;0.70;;;18.90;98.30;;;;;;5014028;28;20415;-72
2023/09/05 18:53:36;;;;;;;1.23;0.90;;;18.80;98.30;;;;;;5013279;28;20509;-71
2023/09/05 18:56:03;;;;;;;4.23;1.40;;;18.80;98.50;;;;;;5013723;28;20863;-72
2023/09/05 18:58:28;;;;;;;2.70;1.10;;;18.70;98.50;;;;;;5013842;28;20820;-74
2023/09/05 19:00:54;;;;;;;0.53;0.53;;;18.70;98.50;;;;;;5013721;28;20410;-72
2023/09/05 19:03:20;;;;;;;0.70;0.70;;;18.70;98.30;;;;;;5013614;28;20179;-69
2023/09/05 19:05:45;;;;;;;0.90;0.83;;;18.70;98.40;;;;;;5013678;28;20171;-72
2023/09/05 19:08:14;;;;;;;1.37;0.97;;;18.70;98.50;;;;;;5013467;28;20219;-69
2023/09/05 19:10:40;;;;;;;0.80;0.80;;;18.70;98.30;;;;;;5028749;28;20267;-71
2023/09/05 19:13:06;;;;;;;0.80;0.80;;;18.70;98.50;;;;;;5013375;28;20494;-72
2023/09/05 19:15:32;;;;;;;1.57;1.27;;;18.70;98.40;;;;;;5013802;28;20795;-72
2023/09/05 19:17:58;;;;;;;1.03;1.03;;;18.60;98.50;;;;;;5013298;28;20489;-70
2023/09/05 19:20:24;;;;;;;0.90;0.87;;;18.50;98.50;;;;;;5013769;28;20513;-70
2023/09/05 19:22:50;;;;;;;1.50;0.80;;;18.50;98.80;;;;;;5013334;28;20176;-72
2023/09/05 19:25:16;;;;;;;2.50;1.77;;;18.40;99.10;;;;;;5011993;28;20466;-70
2023/09/05 19:27:43;;;;;;;0.73;0.73;;;18.20;99.10;;;;;;5012733;28;20455;-71
2023/09/05 19:30:11;;;;;;;0.70;0.53;;;18.10;99.60;;;;;;5013546;28;20951;-72
2023/09/05 19:32:38;;;;;;;1.00;0.90;;;18.00;99.80;;;;;;5013825;28;20502;-73
2023/09/05 19:35:10;;;;;;;1.83;1.73;;;17.90;99.80;;;;;;5012597;28;20576;-72
2023/09/05 19:37:36;;;;;;;0.53;0.50;;;18.00;99.60;;;;;;5012970;28;20414;-71
2023/09/05 19:40:03;;;;;;;1.00;1.00;;;18.10;99.50;;;;;;5013386;28;20407;-70
2023/09/05 19:42:29;;;;;;;1.90;1.00;;;18.10;99.60;;;;;;5013462;28;20404;-70
2023/09/05 19:44:55;;;;;;;1.07;0.97;;;18.00;99.80;;;;;;5013470;28;20438;-72
2023/09/05 19:47:21;;;;;;;1.20;1.10;;;17.80;99.90;;;;;;5013154;28;20406;-71
2023/09/05 19:49:46;;;;;;;0.80;0.80;;;17.70;99.90;;;;;;5013229;28;20414;-70
2023/09/05 19:52:13;;;;;;;0.43;0.43;;;17.60;99.90;;;;;;5013403;28;20180;-68
2023/09/05 19:54:39;;;;;;;1.03;1.03;;;17.50;99.90;;;;;;5014136;28;20202;-69
2023/09/05 19:57:06;;;;;;;1.40;1.30;;;17.50;99.90;;;;;;5016567;28;20806;-70
2023/09/05 19:59:31;;;;;;;1.33;1.23;;;17.50;99.90;;;;;;5016832;28;20402;-71
2023/09/05 20:01:57;;;;;;;2.13;1.47;;;17.30;99.90;;;;;;5016469;28;20410;-70
2023/09/05 20:04:23;;;;;;;4.43;1.47;;;17.20;99.90;;;;;;5016158;28;20203;-71
2023/09/05 20:06:48;;;;;;;1.07;0.97;;;17.20;99.90;;;;;;5016465;28;20255;-69
2023/09/05 20:09:15;;;;;;;1.33;1.33;;;17.20;99.90;;;;;;5016417;28;20191;-70
2023/09/05 20:11:41;;;;;;;1.60;1.40;;;17.10;99.90;;;;;;5016628;28;20175;-71
2023/09/05 20:14:06;;;;;;;2.53;1.07;;;17.10;99.90;;;;;;5015934;28;20818;-71
2023/09/05 20:16:32;;;;;;;0.67;0.50;;;17.10;99.90;;;;;;5016753;28;20184;-70
2023/09/05 20:19:08;;;;;;;1.20;1.17;;;17.20;99.90;;;;;;5015999;28;20172;-70
2023/09/05 20:21:33;;;;;;;1.00;1.00;;;17.20;99.90;;;;;;5016089;28;20537;-71
2023/09/05 20:23:59;;;;;;;0.83;0.83;;;17.30;99.90;;;;;;5015769;28;20438;-71
2023/09/05 20:26:25;;;;;;;0.63;0.63;;;17.30;99.90;;;;;;5016309;28;20191;-69
2023/09/05 20:28:50;;;;;;;1.33;1.17;;;17.40;99.90;;;;;;5016511;28;20413;-71
2023/09/05 20:31:16;;;;;;;0.60;0.60;;;17.30;99.90;;;;;;5031301;28;20542;-69
2023/09/05 20:33:41;;;;;;;1.93;1.27;;;17.20;99.90;;;;;;5015399;28;20187;-70
2023/09/05 20:36:07;;;;;;;0.90;0.60;;;17.10;99.90;;;;;;5015665;28;20168;-71
2023/09/05 20:38:35;;;;;;;1.13;0.97;;;17.10;99.90;;;;;;5015762;28;20591;-71
2023/09/05 20:41:01;;;;;;;1.20;1.10;;;17.10;99.90;;;;;;5015750;28;20230;-71
2023/09/05 20:43:27;;;;;;;1.50;1.03;;;17.10;99.90;;;;;;5015501;28;20426;-72
2023/09/05 20:45:52;;;;;;;0.70;0.70;;;16.90;99.90;;;;;;5015500;28;20254;-69
2023/09/05 20:48:18;;;;;;;1.40;0.80;;;16.90;99.90;;;;;;5015699;28;20179;-70
2023/09/05 20:50:44;;;;;;;1.13;1.03;;;17.00;99.90;;;;;;5015535;28;20267;-70
2023/09/05 20:53:09;;;;;;;1.83;0.90;;;17.00;99.90;;;;;;5015342;28;20179;-71
2023/09/05 20:55:35;;;;;;;1.10;0.87;;;17.00;99.90;;;;;;5015439;28;20639;-69
2023/09/05 20:58:01;;;;;;;0.83;0.80;;;17.00;99.90;;;;;;5015182;28;20179;-70
2023/09/05 21:00:29;;;;;;;1.10;1.00;;;17.00;99.90;;;;;;5015425;28;20402;-71
2023/09/05 21:02:57;;;;;;;2.53;2.43;;;17.00;99.90;;;;;;5015220;28;20410;-72
2023/09/05 21:05:24;;;;;;;10.80;0.90;;;16.90;99.90;;;;;;5014576;28;20881;-69
2023/09/05 21:07:51;;;;;;;1.13;0.97;;;16.90;99.90;;;;;;5014698;28;20509;-71
2023/09/05 21:10:17;;;;;;;1.00;0.97;;;17.00;99.90;;;;;;5015078;28;20821;-71
2023/09/05 21:12:43;;;;;;;3.90;1.13;;;17.00;99.90;;;;;;5015236;28;20442;-71
2023/09/05 21:15:11;;;;;;;1.10;1.07;;;16.90;99.90;;;;;;5014650;28;20558;-69
2023/09/05 21:17:37;;;;;;;1.60;0.90;;;17.00;99.90;;;;;;5015022;28;20185;-70
2023/09/05 21:20:03;;;;;;;1.13;1.03;;;16.90;99.90;;;;;;5015151;28;20402;-72
2023/09/05 21:22:29;;;;;;;1.90;1.00;;;16.80;99.90;;;;;;5014946;28;20171;-70
2023/09/05 21:24:55;;;;;;;1.70;1.03;;;16.80;99.90;;;;;;5014521;28;20449;-70
2023/09/05 21:27:20;;;;;;;1.00;0.63;;;16.80;99.90;;;;;;5014996;28;20627;-68
2023/09/05 21:29:46;;;;;;;0.80;0.80;;;16.80;99.90;;;;;;5014732;28;20186;-69
2023/09/05 21:32:12;;;;;;;1.27;1.13;;;16.90;99.90;;;;;;5014777;28;20266;-71
2023/09/05 21:34:37;;;;;;;1.17;1.07;;;16.80;99.90;;;;;;5014401;28;20211;-71
2023/09/05 21:37:03;;;;;;;0.87;0.80;;;16.80;99.90;;;;;;5014736;28;20210;-71
2023/09/05 21:39:32;;;;;;;0.90;0.90;;;16.80;99.90;;;;;;5014295;28;20173;-70
2023/09/05 21:41:58;;;;;;;0.70;0.70;;;16.90;99.90;;;;;;5014719;28;20406;-73
2023/09/05 21:44:24;;;;;;;0.93;0.73;;;17.00;99.90;;;;;;5014249;28;20488;-71
2023/09/05 21:46:49;;;;;;;0.67;0.67;;;16.90;99.90;;;;;;5014340;28;20398;-69
2023/09/05 21:49:15;;;;;;;1.43;0.80;;;16.80;99.90;;;;;;5014481;28;20184;-73
2023/09/05 21:51:41;;;;;;;1.13;1.03;;;16.70;99.90;;;;;;5014486;28;20705;-70
2023/09/05 21:54:06;;;;;;;1.73;1.23;;;16.70;99.90;;;;;;5014030;28;20237;-70
2023/09/05 21:56:32;;;;;;;2.37;1.40;;;16.70;99.90;;;;;;5014498;28;20176;-70
2023/09/05 21:58:58;;;;;;;1.03;0.77;;;16.80;99.90;;;;;;5014368;28;20189;-70
2023/09/05 22:01:23;;;;;;;0.40;0.40;;;16.70;99.90;;;;;;5013922;28;20167;-70
2023/09/05 22:03:55;;;;;;;2.83;1.70;;;16.70;99.90;;;;;;5013647;28;20274;-71
2023/09/05 22:06:21;;;;;;;1.40;1.30;;;16.70;99.90;;;;;;5012721;28;20546;-71
2023/09/05 22:08:47;;;;;;;1.20;0.80;;;16.60;99.90;;;;;;5013700;28;20407;-70
2023/09/05 22:11:13;;;;;;;0.93;0.93;;;16.60;99.90;;;;;;5013942;28;20426;-71